createdAt,value
2019-01-28T00:00:27.768Z,2.70
2019-01-28T00:02:56.688Z,4.80
2019-01-28T00:05:25.155Z,4.00
2019-01-28T00:07:53.622Z,4.37
2019-01-28T00:10:22.144Z,9.93
2019-01-28T00:12:50.682Z,4.00
2019-01-28T00:15:19.201Z,4.27
2019-01-28T00:17:47.768Z,3.47
2019-01-28T00:20:16.211Z,3.87
2019-01-28T00:22:44.753Z,3.23
2019-01-28T00:25:13.342Z,3.40
2019-01-28T00:27:41.815Z,4.03
2019-01-28T00:30:11.615Z,4.10
2019-01-28T00:32:40.073Z,3.17
2019-01-28T00:35:09.784Z,2.97
2019-01-28T00:37:38.228Z,3.20
2019-01-28T00:40:09.647Z,6.80
2019-01-28T00:42:38.105Z,3.10
2019-01-28T00:45:11.940Z,4.33
2019-01-28T00:47:40.492Z,7.00
2019-01-28T00:50:11.528Z,3.17
2019-01-28T00:52:40.042Z,4.60
2019-01-28T00:55:11.804Z,5.37
2019-01-28T00:57:40.327Z,4.10
2019-01-28T01:00:11.855Z,3.90
2019-01-28T01:02:40.387Z,3.87
2019-01-28T01:05:09.503Z,4.47
2019-01-28T01:07:37.964Z,6.80
2019-01-28T01:10:09.498Z,3.77
2019-01-28T01:12:37.941Z,3.23
2019-01-28T01:15:09.699Z,3.77
2019-01-28T01:17:38.178Z,4.07
2019-01-28T01:20:09.639Z,5.27
2019-01-28T01:22:38.093Z,4.27
2019-01-28T01:25:07.715Z,5.03
2019-01-28T01:27:36.249Z,3.67
2019-01-28T01:30:07.767Z,4.87
2019-01-28T01:32:36.214Z,5.07
2019-01-28T01:35:06.542Z,5.00
2019-01-28T01:37:35.004Z,3.83
2019-01-28T01:40:04.551Z,5.80
2019-01-28T01:42:32.998Z,4.33
2019-01-28T01:45:01.470Z,5.47
2019-01-28T01:47:29.923Z,5.70
2019-01-28T01:49:58.463Z,5.10
2019-01-28T01:52:26.987Z,5.33
2019-01-28T01:54:55.473Z,7.07
2019-01-28T01:57:23.928Z,4.73
2019-01-28T01:59:52.464Z,5.43
2019-01-28T02:02:20.952Z,8.07
2019-01-28T02:04:49.421Z,5.50
2019-01-28T02:07:17.914Z,6.63
2019-01-28T02:09:46.390Z,7.03
2019-01-28T02:12:14.873Z,5.07
2019-01-28T02:14:43.358Z,7.03
2019-01-28T02:17:11.807Z,4.67
2019-01-28T02:19:40.287Z,7.13
2019-01-28T02:22:08.769Z,7.53
2019-01-28T02:24:37.230Z,8.00
2019-01-28T02:27:05.695Z,6.30
2019-01-28T02:29:34.183Z,5.63
2019-01-28T02:32:02.657Z,6.90
2019-01-28T02:34:31.106Z,5.60
2019-01-28T02:36:59.587Z,8.57
2019-01-28T02:39:28.070Z,10.53
2019-01-28T02:41:56.542Z,6.07
2019-01-28T02:44:25.039Z,5.47
2019-01-28T02:46:53.489Z,6.23
2019-01-28T02:49:21.930Z,6.93
2019-01-28T02:51:50.409Z,7.47
2019-01-28T02:54:19.235Z,5.93
2019-01-28T02:56:47.722Z,5.03
2019-01-28T02:59:16.170Z,6.13
2019-01-28T03:01:44.652Z,7.97
2019-01-28T03:04:13.112Z,5.70
2019-01-28T03:06:41.599Z,11.27
2019-01-28T03:09:10.131Z,6.33
2019-01-28T03:11:38.613Z,7.73
2019-01-28T03:14:07.333Z,10.17
2019-01-28T03:16:35.816Z,6.47
2019-01-28T03:19:04.615Z,9.33
2019-01-28T03:21:33.110Z,6.07
2019-01-28T03:24:01.560Z,3.90
2019-01-28T03:26:30.063Z,8.50
2019-01-28T03:28:58.544Z,5.80
2019-01-28T03:31:27.037Z,3.33
2019-01-28T03:33:55.508Z,7.70
2019-01-28T03:36:23.988Z,8.13
2019-01-28T03:38:52.449Z,5.90
2019-01-28T03:41:20.937Z,16.20
2019-01-28T03:43:49.398Z,3.80
2019-01-28T03:46:17.884Z,7.57
2019-01-28T03:48:46.379Z,7.33
2019-01-28T03:51:14.855Z,5.47
2019-01-28T03:53:43.307Z,3.87
2019-01-28T03:56:11.788Z,4.87
2019-01-28T03:58:40.304Z,3.83
2019-01-28T04:01:08.809Z,3.80
2019-01-28T04:03:37.265Z,3.87
2019-01-28T04:06:05.993Z,4.33
2019-01-28T04:08:34.453Z,2.57
2019-01-28T04:11:02.958Z,5.13
2019-01-28T04:13:31.528Z,2.70
2019-01-28T04:16:00.014Z,5.30
2019-01-28T04:18:28.654Z,3.47
2019-01-28T04:20:57.139Z,4.47
2019-01-28T04:23:25.599Z,2.97
2019-01-28T04:25:54.080Z,4.33
2019-01-28T04:28:22.534Z,4.37
2019-01-28T04:30:51.011Z,4.37
2019-01-28T04:33:19.486Z,5.30
2019-01-28T04:35:48.023Z,7.63
2019-01-28T04:38:16.505Z,3.37
2019-01-28T04:40:44.973Z,2.50
2019-01-28T04:43:13.438Z,7.77
2019-01-28T04:45:41.901Z,2.73
2019-01-28T04:48:10.388Z,4.90
2019-01-28T04:50:38.839Z,8.20
2019-01-28T04:53:07.336Z,6.07
2019-01-28T04:55:35.799Z,4.57
2019-01-28T04:58:04.651Z,3.80
2019-01-28T05:00:33.111Z,4.87
2019-01-28T05:03:01.594Z,3.87
2019-01-28T05:05:30.044Z,2.20
2019-01-28T05:07:58.533Z,7.00
2019-01-28T05:10:27.013Z,7.10
2019-01-28T05:12:55.490Z,10.30
2019-01-28T05:15:24.245Z,9.00
2019-01-28T05:17:52.719Z,5.27
2019-01-28T05:20:24.303Z,4.47
2019-01-28T05:22:52.774Z,5.33
2019-01-28T05:25:21.298Z,3.57
2019-01-28T05:27:49.768Z,5.70
2019-01-28T05:30:23.067Z,5.30
2019-01-28T05:32:51.810Z,6.57
2019-01-28T05:35:21.811Z,3.93
2019-01-28T05:37:50.353Z,4.37
2019-01-28T05:40:24.197Z,6.73
2019-01-28T05:42:52.751Z,5.43
2019-01-28T05:45:23.514Z,9.40
2019-01-28T05:47:52.057Z,5.73
2019-01-28T05:50:20.649Z,9.20
2019-01-28T05:52:49.222Z,5.20
2019-01-28T05:55:19.210Z,9.33
2019-01-28T05:57:48.318Z,9.70
2019-01-28T06:00:23.721Z,8.13
2019-01-28T06:02:52.205Z,6.30
2019-01-28T06:05:20.718Z,9.07
2019-01-28T06:07:49.207Z,5.70
2019-01-28T06:10:17.784Z,7.33
2019-01-28T06:12:46.505Z,5.23
2019-01-28T06:15:17.594Z,4.43
2019-01-28T06:17:46.136Z,6.80
2019-01-28T06:20:19.522Z,4.37
2019-01-28T06:22:48.262Z,5.53
2019-01-28T06:25:17.977Z,4.57
2019-01-28T06:27:46.778Z,8.17
2019-01-28T06:30:18.176Z,3.63
2019-01-28T06:32:46.655Z,6.73
2019-01-28T06:35:15.265Z,7.17
2019-01-28T06:37:43.747Z,6.63
2019-01-28T06:40:15.272Z,8.40
2019-01-28T06:42:43.752Z,6.30
2019-01-28T06:45:14.129Z,7.00
2019-01-28T06:47:46.884Z,6.60
2019-01-28T06:50:16.344Z,7.43
2019-01-28T06:52:44.827Z,7.97
2019-01-28T06:55:13.429Z,7.43
2019-01-28T06:57:41.921Z,9.20
2019-01-28T07:00:22.268Z,6.10
2019-01-28T07:02:50.746Z,10.63
2019-01-28T07:05:19.369Z,6.83
2019-01-28T07:07:47.870Z,7.57
2019-01-28T07:10:16.401Z,7.37
2019-01-28T07:12:47.560Z,6.17
2019-01-28T07:15:18.759Z,9.60
2019-01-28T07:17:54.599Z,11.93
2019-01-28T07:20:27.259Z,8.43
2019-01-28T07:22:55.751Z,6.23
2019-01-28T07:25:24.279Z,7.03
2019-01-28T07:27:52.780Z,6.23
2019-01-28T07:30:27.203Z,7.10
2019-01-28T07:32:55.685Z,9.63
2019-01-28T07:35:24.144Z,9.50
2019-01-28T07:37:52.635Z,10.70
2019-01-28T07:40:21.176Z,8.17
2019-01-28T07:42:49.696Z,8.00
2019-01-28T07:45:21.190Z,9.63
2019-01-28T07:47:49.669Z,8.43
2019-01-28T07:50:18.190Z,11.10
2019-01-28T07:52:46.691Z,11.40
2019-01-28T07:55:15.242Z,9.20
2019-01-28T07:57:43.788Z,9.83
2019-01-28T08:00:15.301Z,10.87
2019-01-28T08:02:43.806Z,8.87
2019-01-28T08:05:14.116Z,10.40
2019-01-28T08:07:42.699Z,8.13
2019-01-28T08:10:16.317Z,12.43
2019-01-28T08:12:45.035Z,9.83
2019-01-28T08:15:19.230Z,12.70
2019-01-28T08:17:47.798Z,10.27
2019-01-28T08:20:18.126Z,9.87
2019-01-28T08:22:46.764Z,10.50
2019-01-28T08:25:17.441Z,7.60
2019-01-28T08:27:46.002Z,11.00
2019-01-28T08:30:18.132Z,12.93
2019-01-28T08:32:46.659Z,9.90
2019-01-28T08:35:15.294Z,11.00
2019-01-28T08:37:43.778Z,9.73
2019-01-28T08:40:15.082Z,9.17
2019-01-28T08:42:43.579Z,10.97
2019-01-28T08:45:13.373Z,13.67
2019-01-28T08:47:41.938Z,12.83
2019-01-28T08:50:16.531Z,11.73
2019-01-28T08:52:45.095Z,9.47
2019-01-28T08:55:16.420Z,10.00
2019-01-28T08:57:44.974Z,13.97
2019-01-28T09:00:19.210Z,8.03
2019-01-28T09:02:47.723Z,10.00
2019-01-28T09:05:17.313Z,9.20
2019-01-28T09:07:45.842Z,12.67
2019-01-28T09:10:20.256Z,10.60
2019-01-28T09:12:48.786Z,8.77
2019-01-28T09:15:20.009Z,10.47
2019-01-28T09:17:48.618Z,10.93
2019-01-28T09:20:19.378Z,10.10
2019-01-28T09:22:47.838Z,6.40
2019-01-28T09:25:17.262Z,13.13
2019-01-28T09:27:45.738Z,7.27
2019-01-28T09:30:20.002Z,7.20
2019-01-28T09:32:48.469Z,8.20
2019-01-28T09:35:17.020Z,7.33
2019-01-28T09:37:45.482Z,10.27
2019-01-28T09:40:22.686Z,6.70
2019-01-28T09:42:51.282Z,6.90
2019-01-28T09:45:28.867Z,6.30
2019-01-28T09:47:57.324Z,5.70
2019-01-28T09:50:26.237Z,6.27
2019-01-28T09:52:56.134Z,6.43
2019-01-28T09:55:24.628Z,6.90
2019-01-28T09:57:53.179Z,8.83
2019-01-28T10:00:30.269Z,6.07
2019-01-28T10:02:58.981Z,6.70
2019-01-28T10:05:27.545Z,4.23
2019-01-28T10:07:56.863Z,5.97
2019-01-28T10:10:25.512Z,4.63
2019-01-28T10:12:53.979Z,5.40
2019-01-28T10:15:28.791Z,6.00
2019-01-28T10:17:55.698Z,7.83
2019-01-28T10:20:44.427Z,4.83
2019-01-28T10:23:10.049Z,6.17
2019-01-28T10:25:39.404Z,4.37
2019-01-28T10:28:07.859Z,3.97
2019-01-28T10:30:41.583Z,5.37
2019-01-28T10:33:10.295Z,4.87
2019-01-28T10:35:39.932Z,4.23
2019-01-28T10:38:09.130Z,5.50
2019-01-28T10:40:39.954Z,7.20
2019-01-28T10:43:09.152Z,4.63
2019-01-28T10:45:37.697Z,4.17
2019-01-28T10:48:07.292Z,3.00
2019-01-28T10:50:36.426Z,4.50
2019-01-28T10:53:05.521Z,4.47
2019-01-28T10:55:34.002Z,3.63
2019-01-28T10:58:02.456Z,4.27
2019-01-28T11:00:42.495Z,2.90
2019-01-28T11:03:12.803Z,3.10
2019-01-28T11:05:41.363Z,4.00
2019-01-28T11:08:09.827Z,2.83
2019-01-28T11:10:38.468Z,4.50
2019-01-28T11:13:07.679Z,4.70
2019-01-28T11:15:36.298Z,2.93
2019-01-28T11:18:10.974Z,3.70
2019-01-28T11:20:39.541Z,3.60
2019-01-28T11:23:08.050Z,3.80
2019-01-28T11:25:36.536Z,4.40
2019-01-28T11:28:05.210Z,4.60
2019-01-28T11:30:43.941Z,3.10
2019-01-28T11:33:12.560Z,4.67
2019-01-28T11:35:41.877Z,3.13
2019-01-28T11:38:10.954Z,4.23
2019-01-28T11:40:39.720Z,2.20
2019-01-28T11:43:08.252Z,2.77
2019-01-28T11:45:48.788Z,2.83
2019-01-28T11:48:17.337Z,2.87
2019-01-28T11:50:45.926Z,3.13
2019-01-28T11:53:14.404Z,2.50
2019-01-28T11:55:42.970Z,2.57
2019-01-28T11:58:11.434Z,3.40
2019-01-28T12:00:47.172Z,5.43
2019-01-28T12:03:15.699Z,2.63
2019-01-28T12:05:44.179Z,4.23
2019-01-28T12:08:12.629Z,3.60
2019-01-28T12:10:41.115Z,2.37
2019-01-28T12:13:09.637Z,3.63
2019-01-28T12:15:38.118Z,1.93
2019-01-28T12:18:06.717Z,2.97
2019-01-28T12:20:35.190Z,2.00
2019-01-28T12:23:03.918Z,2.80
2019-01-28T12:25:32.402Z,2.67
2019-01-28T12:28:00.864Z,7.40
2019-01-28T12:30:34.341Z,5.17
2019-01-28T12:33:02.809Z,3.47
2019-01-28T12:35:31.286Z,2.97
2019-01-28T12:37:59.740Z,1.60
2019-01-28T12:40:28.287Z,3.70
2019-01-28T12:42:56.739Z,3.00
2019-01-28T12:45:29.453Z,3.00
2019-01-28T12:47:57.986Z,1.63
2019-01-28T12:50:27.402Z,1.80
2019-01-28T12:52:55.870Z,1.73
2019-01-28T12:55:26.000Z,1.30
2019-01-28T12:57:54.468Z,2.83
2019-01-28T13:00:36.536Z,2.20
2019-01-28T13:03:06.646Z,5.73
2019-01-28T13:05:35.258Z,3.97
2019-01-28T13:08:04.837Z,2.37
2019-01-28T13:10:33.381Z,2.30
2019-01-28T13:13:01.919Z,3.17
2019-01-28T13:15:32.604Z,4.13
2019-01-28T13:18:01.067Z,2.57
2019-01-28T13:20:29.773Z,2.73
2019-01-28T13:22:58.230Z,8.17
2019-01-28T13:25:32.062Z,2.77
2019-01-28T13:28:00.605Z,1.70
2019-01-28T13:30:33.074Z,5.50
2019-01-28T13:33:01.973Z,1.70
2019-01-28T13:35:30.525Z,9.67
2019-01-28T13:37:58.957Z,1.90
2019-01-28T13:40:27.450Z,6.00
2019-01-28T13:42:55.970Z,2.93
2019-01-28T13:45:24.932Z,1.70
2019-01-28T13:47:54.017Z,7.97
2019-01-28T13:50:26.088Z,2.93
2019-01-28T13:52:54.554Z,4.50
2019-01-28T13:55:23.572Z,2.30
2019-01-28T13:57:52.118Z,2.43
2019-01-28T14:00:28.506Z,2.87
2019-01-28T14:02:57.500Z,2.00
2019-01-28T14:05:26.911Z,2.60
2019-01-28T14:07:57.184Z,3.10
2019-01-28T14:10:26.701Z,3.13
2019-01-28T14:12:55.156Z,3.80
2019-01-28T14:15:28.932Z,2.93
2019-01-28T14:17:57.393Z,4.17
2019-01-28T14:20:28.486Z,3.07
2019-01-28T14:22:57.000Z,2.37
2019-01-28T14:25:25.610Z,1.60
2019-01-28T14:27:54.073Z,2.33
2019-01-28T14:30:34.392Z,1.97
2019-01-28T14:33:02.878Z,2.50
2019-01-28T14:35:31.419Z,2.13
2019-01-28T14:37:59.866Z,2.40
2019-01-28T14:40:28.467Z,2.37
2019-01-28T14:42:56.950Z,4.07
2019-01-28T14:45:25.485Z,2.03
2019-01-28T14:47:53.972Z,2.80
2019-01-28T14:50:25.539Z,4.00
2019-01-28T14:52:54.021Z,3.83
2019-01-28T14:55:22.615Z,3.13
2019-01-28T14:57:51.270Z,1.83
2019-01-28T15:00:22.723Z,1.97
2019-01-28T15:02:51.222Z,3.17
2019-01-28T15:05:19.719Z,6.93
2019-01-28T15:07:48.342Z,1.57
2019-01-28T15:10:19.575Z,6.87
2019-01-28T15:12:48.141Z,3.97
2019-01-28T15:15:19.245Z,2.60
2019-01-28T15:17:47.796Z,1.87
2019-01-28T15:20:16.688Z,1.97
2019-01-28T15:22:45.237Z,3.37
2019-01-28T15:25:16.357Z,1.77
2019-01-28T15:27:44.894Z,1.33
2019-01-28T15:30:19.799Z,1.23
2019-01-28T15:32:49.184Z,1.53
2019-01-28T15:35:17.713Z,1.83
2019-01-28T15:37:46.266Z,1.53
2019-01-28T15:40:20.547Z,1.00
2019-01-28T15:42:49.089Z,2.47
2019-01-28T15:45:20.499Z,2.23
2019-01-28T15:47:49.012Z,3.40
2019-01-28T15:50:19.549Z,2.03
2019-01-28T15:52:48.281Z,2.60
2019-01-28T15:55:28.674Z,1.70
2019-01-28T15:57:57.204Z,1.80
2019-01-28T16:00:28.478Z,2.20
2019-01-28T16:02:57.029Z,1.57
2019-01-28T16:05:32.266Z,1.40
2019-01-28T16:08:02.271Z,1.20
2019-01-28T16:10:30.718Z,2.57
2019-01-28T16:12:59.207Z,1.60
2019-01-28T16:15:33.471Z,1.57
2019-01-28T16:18:01.947Z,2.00
2019-01-28T16:20:30.506Z,5.50
2019-01-28T16:22:59.321Z,1.07
2019-01-28T16:25:27.848Z,2.20
2019-01-28T16:27:56.328Z,1.70
2019-01-28T16:30:27.563Z,2.00
2019-01-28T16:32:56.101Z,1.70
2019-01-28T16:35:25.302Z,1.73
2019-01-28T16:37:54.358Z,2.63
2019-01-28T16:40:25.994Z,1.73
2019-01-28T16:42:54.828Z,2.55
2019-01-28T16:45:23.428Z,1.67
2019-01-28T16:47:52.386Z,2.37
2019-01-28T16:50:29.167Z,4.20
2019-01-28T16:52:57.714Z,2.87
2019-01-28T16:55:26.254Z,2.00
2019-01-28T16:57:55.291Z,2.83
2019-01-28T17:00:35.488Z,3.67
2019-01-28T17:03:04.711Z,5.00
2019-01-28T17:05:33.709Z,3.17
2019-01-28T17:08:02.185Z,3.03
2019-01-28T17:10:30.656Z,5.17
2019-01-28T17:12:59.137Z,6.47
2019-01-28T17:15:27.598Z,3.57
2019-01-28T17:17:56.148Z,2.70
2019-01-28T17:20:35.546Z,4.15
2019-01-28T17:23:04.221Z,2.47
2019-01-28T17:25:41.235Z,3.20
2019-01-28T17:28:09.945Z,2.60
2019-01-28T17:30:46.824Z,2.23
2019-01-28T17:33:15.366Z,4.07
2019-01-28T17:35:43.836Z,2.87
2019-01-28T17:38:12.396Z,3.23
2019-01-28T17:40:41.907Z,2.80
2019-01-28T17:43:11.439Z,5.07
2019-01-28T17:45:39.967Z,3.43
2019-01-28T17:48:09.392Z,2.63
2019-01-28T17:50:43.373Z,4.57
2019-01-28T17:53:08.112Z,3.57
2019-01-28T17:55:36.653Z,4.43
2019-01-28T17:58:06.568Z,4.80
2019-01-28T18:00:36.714Z,3.47
2019-01-28T18:03:06.737Z,6.60
2019-01-28T18:05:35.276Z,3.07
2019-01-28T18:08:03.847Z,3.07
2019-01-28T18:10:32.312Z,7.63
2019-01-28T18:13:00.870Z,4.93
2019-01-28T18:15:30.108Z,3.27
2019-01-28T18:17:58.592Z,2.80
2019-01-28T18:20:27.064Z,5.47
2019-01-28T18:22:55.554Z,4.50
2019-01-28T18:25:34.973Z,3.27
2019-01-28T18:28:04.119Z,3.10
2019-01-28T18:30:45.480Z,4.23
2019-01-28T18:33:13.954Z,3.87
2019-01-28T18:35:42.494Z,4.87
2019-01-28T18:38:11.074Z,4.00
2019-01-28T18:40:39.595Z,5.83
2019-01-28T18:43:08.054Z,4.27
2019-01-28T18:45:36.605Z,4.63
2019-01-28T18:48:06.395Z,6.07
2019-01-28T18:50:34.865Z,3.23
2019-01-28T18:53:03.339Z,3.87
2019-01-28T18:55:31.827Z,6.53
2019-01-28T18:58:00.295Z,4.70
2019-01-28T19:00:32.841Z,4.43
2019-01-28T19:03:01.301Z,3.07
2019-01-28T19:05:31.419Z,3.73
2019-01-28T19:08:10.449Z,4.03
2019-01-28T19:10:52.585Z,5.87
2019-01-28T19:13:40.612Z,3.87
2019-01-28T19:16:28.656Z,4.30
2019-01-28T19:19:15.172Z,3.40
2019-01-28T19:21:45.255Z,4.43
2019-01-28T19:24:13.737Z,3.90
2019-01-28T19:26:42.582Z,4.27
2019-01-28T19:29:11.178Z,5.07
2019-01-28T19:31:39.638Z,3.33
2019-01-28T19:34:08.201Z,3.90
2019-01-28T19:36:36.684Z,4.30
2019-01-28T19:39:08.071Z,3.10
2019-01-28T19:41:36.559Z,5.70
2019-01-28T19:44:05.372Z,3.87
2019-01-28T19:46:33.823Z,4.13
2019-01-28T19:49:02.293Z,5.83
2019-01-28T19:51:30.778Z,6.03
2019-01-28T19:53:59.233Z,5.50
2019-01-28T19:56:27.718Z,5.73
2019-01-28T19:58:56.199Z,5.73
2019-01-28T20:01:24.699Z,5.73
2019-01-28T20:03:53.159Z,5.70
2019-01-28T20:06:21.660Z,5.37
2019-01-28T20:08:50.119Z,8.83
2019-01-28T20:11:18.602Z,5.47
2019-01-28T20:13:47.083Z,5.67
2019-01-28T20:16:15.586Z,6.07
2019-01-28T20:18:44.042Z,11.03
2019-01-28T20:21:12.570Z,6.57
2019-01-28T20:23:41.032Z,7.40
2019-01-28T20:26:09.617Z,9.03
2019-01-28T20:28:38.075Z,9.67
2019-01-28T20:31:06.705Z,11.60
2019-01-28T20:33:35.161Z,31.63
2019-01-28T20:36:03.848Z,22.10
2019-01-28T20:38:32.313Z,27.43
2019-01-28T20:41:00.793Z,24.37
2019-01-28T20:43:29.260Z,9.23
2019-01-28T20:45:57.761Z,7.67
2019-01-28T20:48:26.290Z,9.00
2019-01-28T20:50:54.773Z,10.27
2019-01-28T20:53:23.213Z,10.33
2019-01-28T20:55:51.715Z,7.37
2019-01-28T20:58:20.152Z,7.47
2019-01-28T21:00:48.672Z,12.97
2019-01-28T21:03:17.156Z,7.77
2019-01-28T21:05:45.611Z,8.53
2019-01-28T21:08:14.160Z,13.43
2019-01-28T21:10:42.651Z,7.77
2019-01-28T21:13:11.166Z,10.07
2019-01-28T21:15:39.608Z,10.00
2019-01-28T21:18:08.157Z,9.97
2019-01-28T21:20:36.618Z,9.33
2019-01-28T21:23:05.121Z,10.77
2019-01-28T21:25:33.567Z,9.63
2019-01-28T21:28:02.057Z,10.03
2019-01-28T21:30:32.952Z,10.67
2019-01-28T21:33:01.451Z,9.20
2019-01-28T21:35:44.235Z,10.53
2019-01-28T21:38:14.374Z,13.40
2019-01-28T21:40:42.915Z,12.20
2019-01-28T21:43:11.395Z,11.27
2019-01-28T21:45:39.880Z,12.00
2019-01-28T21:48:08.428Z,10.70
2019-01-28T21:50:36.911Z,12.60
2019-01-28T21:53:05.590Z,13.40
2019-01-28T21:55:34.068Z,9.63
2019-01-28T21:58:02.641Z,10.07
2019-01-28T22:00:31.165Z,13.43
2019-01-28T22:02:59.720Z,14.53
2019-01-28T22:05:28.181Z,12.20
2019-01-28T22:07:56.725Z,10.47
2019-01-28T22:10:25.223Z,12.90
2019-01-28T22:12:53.716Z,12.53
2019-01-28T22:15:22.186Z,12.10
2019-01-28T22:17:50.668Z,13.07
2019-01-28T22:20:19.123Z,17.63
2019-01-28T22:22:47.625Z,10.67
2019-01-28T22:25:17.222Z,12.43
2019-01-28T22:27:45.811Z,17.07
2019-01-28T22:30:21.908Z,13.40
2019-01-28T22:32:50.563Z,12.10
2019-01-28T22:35:19.360Z,11.00
2019-01-28T22:37:47.830Z,10.87
2019-01-28T22:40:18.174Z,12.23
2019-01-28T22:42:46.634Z,13.80
2019-01-28T22:45:20.447Z,10.63
2019-01-28T22:47:49.033Z,12.67
2019-01-28T22:50:21.024Z,13.90
2019-01-28T22:52:49.558Z,16.20
2019-01-28T22:55:20.787Z,14.60
2019-01-28T22:57:49.236Z,11.57
2019-01-28T23:00:48.913Z,12.63
2019-01-28T23:03:19.580Z,13.93
2019-01-28T23:05:48.112Z,11.83
2019-01-28T23:08:16.648Z,14.83
2019-01-28T23:10:45.129Z,15.30
2019-01-28T23:13:14.559Z,13.93
2019-01-28T23:15:43.112Z,12.47
2019-01-28T23:18:11.645Z,13.43
2019-01-28T23:20:40.207Z,12.47
2019-01-28T23:23:08.728Z,12.87
2019-01-28T23:25:37.226Z,11.73
2019-01-28T23:28:06.122Z,15.03
2019-01-28T23:30:34.749Z,14.13
2019-01-28T23:33:03.275Z,9.80
2019-01-28T23:35:31.757Z,15.33
2019-01-28T23:38:00.222Z,13.93
2019-01-28T23:40:28.780Z,12.90
2019-01-28T23:42:57.354Z,14.77
2019-01-28T23:45:25.817Z,10.17
2019-01-28T23:47:54.299Z,16.23
2019-01-28T23:50:22.854Z,13.80
2019-01-28T23:52:51.316Z,10.93
2019-01-28T23:55:19.881Z,13.57
2019-01-28T23:57:56.428Z,12.57
